createdAt,value
2017-02-02T00:00:20.737Z,6.57
2017-02-02T00:00:46.869Z,6.6
2017-02-02T00:01:13.012Z,6.63
2017-02-02T00:01:39.202Z,6.57
2017-02-02T00:02:05.356Z,6.63
2017-02-02T00:02:31.475Z,6.57
2017-02-02T00:02:57.577Z,6.59
2017-02-02T00:03:23.708Z,6.63
2017-02-02T00:03:49.819Z,6.62
2017-02-02T00:04:15.948Z,6.62
2017-02-02T00:04:42.087Z,6.56
2017-02-02T00:05:08.257Z,6.57
2017-02-02T00:05:34.373Z,6.54
2017-02-02T00:06:00.487Z,6.63
2017-02-02T00:06:26.657Z,6.63
2017-02-02T00:06:52.749Z,6.56
2017-02-02T00:07:18.907Z,6.62
2017-02-02T00:07:45.005Z,6.67
2017-02-02T00:08:11.127Z,6.56
2017-02-02T00:08:37.261Z,6.64
2017-02-02T00:09:03.455Z,6.63
2017-02-02T00:09:29.620Z,6.72
2017-02-02T00:09:55.815Z,6.59
2017-02-02T00:10:22.070Z,6.62
2017-02-02T00:10:48.193Z,6.67
2017-02-02T00:11:14.406Z,6.72
2017-02-02T00:11:40.516Z,6.57
2017-02-02T00:12:06.694Z,6.57
2017-02-02T00:12:32.797Z,6.56
2017-02-02T00:12:58.922Z,6.7
2017-02-02T00:13:25.129Z,6.57
2017-02-02T00:13:51.301Z,6.56
2017-02-02T00:14:17.436Z,6.59
2017-02-02T00:14:43.539Z,6.62
2017-02-02T00:15:09.642Z,6.6
2017-02-02T00:15:35.764Z,6.57
2017-02-02T00:16:01.914Z,6.59
2017-02-02T00:16:28.070Z,6.56
2017-02-02T00:16:54.197Z,6.6
2017-02-02T00:17:20.340Z,6.56
2017-02-02T00:17:46.471Z,6.62
2017-02-02T00:18:12.635Z,6.56
2017-02-02T00:18:38.769Z,6.66
2017-02-02T00:19:04.916Z,6.78
2017-02-02T00:19:31.034Z,6.62
2017-02-02T00:19:57.200Z,6.78
2017-02-02T00:20:23.355Z,6.69
2017-02-02T00:20:49.461Z,6.63
2017-02-02T00:21:15.569Z,6.7
2017-02-02T00:21:41.665Z,6.67
2017-02-02T00:22:07.807Z,6.59
2017-02-02T00:22:33.979Z,6.72
2017-02-02T00:23:00.119Z,6.63
2017-02-02T00:23:26.286Z,6.64
2017-02-02T00:23:52.466Z,6.72
2017-02-02T00:24:18.668Z,6.69
2017-02-02T00:24:44.809Z,6.72
2017-02-02T00:25:10.928Z,6.6
2017-02-02T00:25:37.043Z,6.62
2017-02-02T00:26:03.175Z,6.74
2017-02-02T00:26:29.339Z,6.62
2017-02-02T00:26:55.481Z,6.75
2017-02-02T00:27:21.665Z,6.64
2017-02-02T00:27:47.747Z,6.64
2017-02-02T00:28:13.855Z,6.72
2017-02-02T00:28:40.003Z,6.74
2017-02-02T00:29:06.163Z,6.67
2017-02-02T00:29:32.310Z,6.7
2017-02-02T00:29:58.437Z,6.74
2017-02-02T00:30:24.594Z,6.69
2017-02-02T00:30:50.695Z,6.66
2017-02-02T00:31:16.832Z,6.64
2017-02-02T00:31:42.989Z,6.75
2017-02-02T00:32:09.142Z,6.75
2017-02-02T00:32:35.255Z,6.74
2017-02-02T00:33:01.434Z,6.6
2017-02-02T00:33:27.576Z,6.77
2017-02-02T00:33:53.749Z,6.62
2017-02-02T00:34:19.890Z,6.74
2017-02-02T00:34:46.066Z,6.57
2017-02-02T00:35:12.258Z,6.7
2017-02-02T00:35:38.413Z,6.69
2017-02-02T00:36:04.582Z,6.67
2017-02-02T00:36:30.748Z,6.74
2017-02-02T00:36:56.873Z,6.79
2017-02-02T00:37:22.993Z,6.75
2017-02-02T00:37:49.173Z,6.78
2017-02-02T00:38:15.336Z,6.84
2017-02-02T00:38:41.432Z,6.78
2017-02-02T00:39:07.590Z,6.87
2017-02-02T00:39:33.674Z,6.89
2017-02-02T00:39:59.786Z,6.93
2017-02-02T00:40:25.908Z,6.87
2017-02-02T00:40:52.030Z,6.96
2017-02-02T00:41:18.215Z,6.88
2017-02-02T00:41:44.376Z,6.87
2017-02-02T00:42:10.494Z,6.79
2017-02-02T00:42:36.617Z,6.87
2017-02-02T00:43:02.749Z,6.81
2017-02-02T00:43:28.897Z,6.7
2017-02-02T00:43:55.081Z,6.77
2017-02-02T00:44:21.225Z,6.81
2017-02-02T00:44:47.350Z,6.77
2017-02-02T00:45:13.495Z,6.87
2017-02-02T00:45:39.582Z,6.89
2017-02-02T00:46:05.758Z,6.88
2017-02-02T00:46:31.916Z,6.87
2017-02-02T00:46:58.007Z,6.88
2017-02-02T00:47:24.130Z,6.97
2017-02-02T00:47:50.297Z,6.93
2017-02-02T00:48:16.507Z,6.95
2017-02-02T00:48:42.651Z,6.96
2017-02-02T00:49:08.809Z,6.93
2017-02-02T00:49:34.986Z,7
2017-02-02T00:50:01.155Z,7.02
2017-02-02T00:50:27.278Z,6.99
2017-02-02T00:50:53.454Z,6.99
2017-02-02T00:51:19.622Z,7.03
2017-02-02T00:51:45.795Z,7.1
2017-02-02T00:52:11.958Z,7.07
2017-02-02T00:52:38.133Z,7.02
2017-02-02T00:53:04.234Z,7.18
2017-02-02T00:53:30.354Z,7.14
2017-02-02T00:53:56.489Z,7.1
2017-02-02T00:54:22.680Z,7.11
2017-02-02T00:54:48.814Z,7.23
2017-02-02T00:55:14.970Z,7.1
2017-02-02T00:55:41.095Z,7.05
2017-02-02T00:56:07.254Z,7.07
2017-02-02T00:56:33.429Z,7.07
2017-02-02T00:56:59.543Z,7.17
2017-02-02T00:57:25.701Z,7.15
2017-02-02T00:57:51.837Z,7.15
2017-02-02T00:58:17.986Z,7.21
2017-02-02T00:58:44.109Z,7.15
2017-02-02T00:59:10.241Z,7.13
2017-02-02T00:59:36.384Z,7.2
2017-02-02T01:00:02.518Z,7.1
2017-02-02T01:00:28.687Z,7.17
2017-02-02T01:00:54.831Z,7.14
2017-02-02T01:01:20.992Z,6.97
2017-02-02T01:01:47.110Z,6.92
2017-02-02T01:02:13.217Z,6.95
2017-02-02T01:02:39.379Z,6.89
2017-02-02T01:03:05.490Z,6.92
2017-02-02T01:03:31.614Z,6.92
2017-02-02T01:03:57.747Z,7.03
2017-02-02T01:04:23.916Z,6.96
2017-02-02T01:04:50.018Z,6.97
2017-02-02T01:05:16.145Z,7
2017-02-02T01:05:42.294Z,6.96
2017-02-02T01:06:08.431Z,7
2017-02-02T01:06:34.631Z,6.95
2017-02-02T01:07:00.751Z,6.82
2017-02-02T01:07:26.904Z,6.87
2017-02-02T01:07:53.027Z,6.92
2017-02-02T01:08:19.129Z,6.77
2017-02-02T01:08:45.325Z,6.87
2017-02-02T01:09:11.442Z,6.85
2017-02-02T01:09:37.611Z,6.92
2017-02-02T01:10:03.746Z,6.92
2017-02-02T01:10:29.927Z,6.95
2017-02-02T01:10:56.068Z,6.95
2017-02-02T01:11:22.284Z,6.95
2017-02-02T01:11:48.477Z,6.92
2017-02-02T01:12:14.624Z,6.96
2017-02-02T01:12:40.781Z,6.96
2017-02-02T01:13:06.978Z,6.82
2017-02-02T01:13:33.137Z,6.82
2017-02-02T01:13:59.335Z,6.88
2017-02-02T01:14:25.501Z,6.84
2017-02-02T01:14:51.671Z,6.88
2017-02-02T01:15:17.848Z,6.88
2017-02-02T01:15:44.005Z,6.93
2017-02-02T01:16:10.126Z,6.89
2017-02-02T01:16:36.267Z,6.85
2017-02-02T01:17:02.432Z,6.77
2017-02-02T01:17:28.556Z,6.87
2017-02-02T01:17:54.708Z,6.85
2017-02-02T01:18:20.886Z,6.77
2017-02-02T01:18:47.034Z,6.77
2017-02-02T01:19:13.203Z,6.77
2017-02-02T01:19:39.294Z,6.77
2017-02-02T01:20:05.458Z,6.87
2017-02-02T01:20:31.598Z,6.88
2017-02-02T01:20:57.755Z,6.82
2017-02-02T01:21:23.851Z,6.78
2017-02-02T01:21:50.008Z,6.87
2017-02-02T01:22:16.111Z,6.78
2017-02-02T01:22:42.223Z,6.92
2017-02-02T01:23:08.359Z,6.82
2017-02-02T01:23:34.523Z,6.88
2017-02-02T01:24:00.667Z,6.96
2017-02-02T01:24:26.819Z,6.95
2017-02-02T01:24:52.953Z,7
2017-02-02T01:25:19.061Z,6.93
2017-02-02T01:25:45.194Z,6.97
2017-02-02T01:26:11.355Z,6.99
2017-02-02T01:26:37.544Z,6.97
2017-02-02T01:27:03.760Z,6.97
2017-02-02T01:27:29.900Z,6.99
2017-02-02T01:27:55.997Z,6.97
2017-02-02T01:28:22.168Z,6.97
2017-02-02T01:28:48.314Z,7.03
2017-02-02T01:29:14.478Z,6.97
2017-02-02T01:29:40.621Z,6.88
2017-02-02T01:30:06.784Z,6.96
2017-02-02T01:30:32.952Z,6.97
2017-02-02T01:30:59.082Z,7.05
2017-02-02T01:31:25.264Z,7.06
2017-02-02T01:31:51.367Z,7.05
2017-02-02T01:32:17.483Z,6.97
2017-02-02T01:32:43.662Z,6.99
2017-02-02T01:33:09.844Z,6.99
2017-02-02T01:33:35.998Z,7.02
2017-02-02T01:34:02.133Z,6.99
2017-02-02T01:34:28.298Z,7.1
2017-02-02T01:34:54.424Z,7.1
2017-02-02T01:35:20.524Z,6.97
2017-02-02T01:35:46.702Z,6.99
2017-02-02T01:36:12.848Z,6.92
2017-02-02T01:36:39.017Z,6.92
2017-02-02T01:37:05.185Z,6.93
2017-02-02T01:37:31.299Z,6.99
2017-02-02T01:37:57.432Z,6.87
2017-02-02T01:38:23.585Z,6.82
2017-02-02T01:38:49.743Z,6.87
2017-02-02T01:39:15.910Z,6.85
2017-02-02T01:39:42.013Z,6.88
2017-02-02T01:40:08.160Z,6.93
2017-02-02T01:40:34.253Z,6.92
2017-02-02T01:41:00.351Z,6.88
2017-02-02T01:41:26.518Z,6.92
2017-02-02T01:41:52.693Z,6.89
2017-02-02T01:42:18.853Z,6.74
2017-02-02T01:42:44.990Z,6.85
2017-02-02T01:43:11.177Z,6.78
2017-02-02T01:43:37.318Z,6.81
2017-02-02T01:44:03.445Z,6.81
2017-02-02T01:44:29.585Z,6.78
2017-02-02T01:44:55.742Z,6.75
2017-02-02T01:45:21.894Z,6.89
2017-02-02T01:45:47.990Z,6.84
2017-02-02T01:46:14.121Z,6.85
2017-02-02T01:46:40.278Z,6.92
2017-02-02T01:47:06.370Z,6.84
2017-02-02T01:47:32.522Z,6.88
2017-02-02T01:47:58.665Z,6.88
2017-02-02T01:48:24.799Z,6.88
2017-02-02T01:48:50.894Z,6.87
2017-02-02T01:49:17.027Z,6.81
2017-02-02T01:49:43.178Z,6.92
2017-02-02T01:50:09.321Z,6.85
2017-02-02T01:50:35.431Z,6.82
2017-02-02T01:51:01.587Z,6.93
2017-02-02T01:51:27.710Z,6.97
2017-02-02T01:51:53.853Z,6.96
2017-02-02T01:52:20.014Z,6.96
2017-02-02T01:52:46.204Z,6.92
2017-02-02T01:53:12.349Z,6.87
2017-02-02T01:53:38.491Z,6.88
2017-02-02T01:54:04.718Z,6.92
2017-02-02T01:54:30.890Z,6.92
2017-02-02T01:54:57.063Z,6.93
2017-02-02T01:55:23.232Z,6.89
2017-02-02T01:55:49.389Z,6.93
2017-02-02T01:56:15.523Z,6.93
2017-02-02T01:56:41.684Z,6.85
2017-02-02T01:57:07.811Z,6.84
2017-02-02T01:57:33.967Z,6.88
2017-02-02T01:58:00.088Z,7.03
2017-02-02T01:58:26.257Z,6.99
2017-02-02T01:58:52.417Z,6.92
2017-02-02T01:59:18.591Z,6.81
2017-02-02T01:59:44.727Z,6.78
2017-02-02T02:00:10.877Z,6.84
2017-02-02T02:00:37.005Z,6.75
2017-02-02T02:01:03.171Z,6.75
2017-02-02T02:01:29.295Z,6.88
2017-02-02T02:01:55.390Z,6.85
2017-02-02T02:02:21.582Z,7
2017-02-02T02:02:47.760Z,6.96
2017-02-02T02:03:13.866Z,6.97
2017-02-02T02:03:39.958Z,6.97
2017-02-02T02:04:06.106Z,6.99
2017-02-02T02:04:32.274Z,7.07
2017-02-02T02:04:58.367Z,7.06
2017-02-02T02:05:24.482Z,7.14
2017-02-02T02:05:50.588Z,7.07
2017-02-02T02:06:16.736Z,7.1
2017-02-02T02:06:42.893Z,7.1
2017-02-02T02:07:09.024Z,7
2017-02-02T02:07:35.152Z,6.99
2017-02-02T02:08:01.275Z,7.07
2017-02-02T02:08:27.398Z,6.97
2017-02-02T02:08:53.546Z,7
2017-02-02T02:09:19.680Z,7.05
2017-02-02T02:09:45.857Z,7.1
2017-02-02T02:10:11.995Z,7.1
2017-02-02T02:10:38.158Z,7.07
2017-02-02T02:11:04.344Z,7.15
2017-02-02T02:11:30.486Z,7.23
2017-02-02T02:11:56.647Z,7.15
2017-02-02T02:12:22.830Z,7.2
2017-02-02T02:12:48.944Z,7.21
2017-02-02T02:13:15.099Z,7.2
2017-02-02T02:13:41.250Z,7.24
2017-02-02T02:14:07.433Z,7.18
2017-02-02T02:14:33.614Z,7.21
2017-02-02T02:14:59.762Z,7.17
2017-02-02T02:15:25.886Z,7.15
2017-02-02T02:15:52.057Z,7.25
2017-02-02T02:16:18.164Z,7.21
2017-02-02T02:16:44.351Z,7.2
2017-02-02T02:17:10.479Z,7.28
2017-02-02T02:17:36.649Z,7.24
2017-02-02T02:18:02.771Z,7.24
2017-02-02T02:18:28.916Z,7.21
2017-02-02T02:18:55.090Z,7.29
2017-02-02T02:19:21.268Z,7.31
2017-02-02T02:19:47.359Z,7.32
2017-02-02T02:20:13.481Z,7.31
2017-02-02T02:20:39.615Z,7.29
2017-02-02T02:21:05.732Z,7.31
2017-02-02T02:21:31.852Z,7.28
2017-02-02T02:21:58.071Z,7.32
2017-02-02T02:22:24.160Z,7.24
2017-02-02T02:22:50.324Z,7.2
2017-02-02T02:23:16.494Z,7.18
2017-02-02T02:23:42.620Z,7.24
2017-02-02T02:24:08.744Z,7.15
2017-02-02T02:24:34.896Z,7.18
2017-02-02T02:25:01.041Z,7.2
2017-02-02T02:25:27.147Z,7.2
2017-02-02T02:25:53.264Z,7.17
2017-02-02T02:26:19.400Z,7.17
2017-02-02T02:26:45.512Z,7.21
2017-02-02T02:27:11.723Z,7.17
2017-02-02T02:27:37.861Z,7.2
2017-02-02T02:28:03.994Z,7.18
2017-02-02T02:28:30.125Z,7.23
2017-02-02T02:28:56.237Z,7.2
2017-02-02T02:29:22.363Z,7.21
2017-02-02T02:29:48.494Z,7.18
2017-02-02T02:30:14.645Z,7.2
2017-02-02T02:30:40.843Z,7.2
2017-02-02T02:31:06.979Z,7.24
2017-02-02T02:31:33.087Z,7.18
2017-02-02T02:31:59.249Z,7.18
2017-02-02T02:32:25.417Z,7.2
2017-02-02T02:32:51.578Z,7.18
2017-02-02T02:33:17.741Z,7.2
2017-02-02T02:33:43.907Z,7.13
2017-02-02T02:34:10.028Z,7.18
2017-02-02T02:34:36.195Z,7.07
2017-02-02T02:35:02.344Z,7.15
2017-02-02T02:35:28.519Z,7.14
2017-02-02T02:35:54.642Z,7.07
2017-02-02T02:36:20.827Z,7.1
2017-02-02T02:36:46.959Z,7.14
2017-02-02T02:37:13.103Z,7.1
2017-02-02T02:37:39.290Z,7.11
2017-02-02T02:38:05.453Z,7.07
2017-02-02T02:38:31.600Z,7.06
2017-02-02T02:38:57.744Z,7.14
2017-02-02T02:39:23.883Z,7.17
2017-02-02T02:39:50.037Z,7.13
2017-02-02T02:40:16.153Z,7.18
2017-02-02T02:40:42.289Z,7.2
2017-02-02T02:41:08.414Z,7.2
2017-02-02T02:41:34.503Z,7.18
2017-02-02T02:42:00.635Z,7.13
2017-02-02T02:42:26.797Z,7.2
2017-02-02T02:42:52.910Z,7.05
2017-02-02T02:43:19.039Z,7.17
2017-02-02T02:43:45.174Z,7.13
2017-02-02T02:44:11.323Z,7.15
2017-02-02T02:44:37.463Z,7.15
2017-02-02T02:45:03.637Z,7.15
2017-02-02T02:45:29.806Z,7.2
2017-02-02T02:45:55.930Z,7.21
2017-02-02T02:46:22.061Z,7.25
2017-02-02T02:46:48.185Z,7.29
2017-02-02T02:47:14.292Z,7.25
2017-02-02T02:47:40.406Z,7.25
2017-02-02T02:48:06.554Z,7.29
2017-02-02T02:48:32.748Z,7.23
2017-02-02T02:48:58.867Z,7.17
2017-02-02T02:49:24.990Z,7.15
2017-02-02T02:49:51.214Z,7.25
2017-02-02T02:50:17.364Z,7.25
2017-02-02T02:50:43.503Z,7.28
2017-02-02T02:51:09.694Z,7.36
2017-02-02T02:51:35.820Z,7.31
2017-02-02T02:52:01.934Z,7.33
2017-02-02T02:52:28.038Z,7.38
2017-02-02T02:52:54.159Z,7.42
2017-02-02T02:53:20.295Z,7.32
2017-02-02T02:53:46.469Z,7.25
2017-02-02T02:54:12.605Z,7.23
2017-02-02T02:54:38.792Z,7.36
2017-02-02T02:55:04.908Z,7.32
2017-02-02T02:55:31.042Z,7.32
2017-02-02T02:55:57.181Z,7.28
2017-02-02T02:56:23.343Z,7.36
2017-02-02T02:56:49.482Z,7.48
2017-02-02T02:57:15.635Z,7.4
2017-02-02T02:57:41.772Z,7.48
2017-02-02T02:58:07.916Z,7.31
2017-02-02T02:58:34.050Z,7.33
2017-02-02T02:59:00.163Z,7.4
2017-02-02T02:59:26.295Z,7.5
2017-02-02T02:59:52.485Z,7.38
2017-02-02T03:00:18.600Z,7.29
2017-02-02T03:00:44.740Z,7.25
2017-02-02T03:01:10.908Z,7.29
2017-02-02T03:01:37.042Z,7.33
2017-02-02T03:02:03.162Z,7.45
2017-02-02T03:02:29.303Z,7.42
2017-02-02T03:02:55.448Z,7.38
2017-02-02T03:03:21.584Z,7.39
2017-02-02T03:03:47.757Z,7.48
2017-02-02T03:04:13.938Z,7.4
2017-02-02T03:04:40.102Z,7.42
2017-02-02T03:05:06.215Z,7.4
2017-02-02T03:05:32.349Z,7.43
2017-02-02T03:05:58.547Z,7.45
2017-02-02T03:06:24.660Z,7.25
2017-02-02T03:06:50.787Z,7.35
2017-02-02T03:07:16.978Z,7.36
2017-02-02T03:07:43.122Z,7.4
2017-02-02T03:08:09.264Z,7.38
2017-02-02T03:08:35.430Z,7.43
2017-02-02T03:09:01.551Z,7.47
2017-02-02T03:09:27.754Z,7.38
2017-02-02T03:09:53.903Z,7.48
2017-02-02T03:10:20.075Z,7.51
2017-02-02T03:10:46.240Z,7.48
2017-02-02T03:11:12.388Z,7.43
2017-02-02T03:11:38.576Z,7.42
2017-02-02T03:12:04.748Z,7.43
2017-02-02T03:12:30.925Z,7.42
2017-02-02T03:12:57.016Z,7.51
2017-02-02T03:13:23.178Z,7.39
2017-02-02T03:13:49.305Z,7.43
2017-02-02T03:14:15.419Z,7.5
2017-02-02T03:14:41.582Z,7.54
2017-02-02T03:15:07.698Z,7.5
2017-02-02T03:15:33.885Z,7.5
2017-02-02T03:16:00.057Z,7.48
2017-02-02T03:16:26.178Z,7.5
2017-02-02T03:16:52.315Z,7.48
2017-02-02T03:17:18.450Z,7.45
2017-02-02T03:17:44.587Z,7.4
2017-02-02T03:18:10.768Z,7.39
2017-02-02T03:18:36.908Z,7.47
2017-02-02T03:19:03.046Z,7.54
2017-02-02T03:19:29.173Z,7.48
2017-02-02T03:19:55.371Z,7.57
2017-02-02T03:20:21.532Z,7.51
2017-02-02T03:20:47.685Z,7.42
2017-02-02T03:21:13.777Z,7.43
2017-02-02T03:21:39.991Z,7.42
2017-02-02T03:22:06.182Z,7.42
2017-02-02T03:22:32.312Z,7.48
2017-02-02T03:22:58.462Z,7.36
2017-02-02T03:23:24.629Z,7.47
2017-02-02T03:23:50.751Z,7.48
2017-02-02T03:24:16.873Z,7.39
2017-02-02T03:24:43.011Z,7.4
2017-02-02T03:25:09.162Z,7.33
2017-02-02T03:25:35.252Z,7.23
2017-02-02T03:26:01.395Z,7.24
2017-02-02T03:26:27.545Z,7.32
2017-02-02T03:26:53.689Z,7.25
2017-02-02T03:27:19.845Z,7.42
2017-02-02T03:27:45.979Z,7.33
2017-02-02T03:28:12.136Z,7.4
2017-02-02T03:28:38.240Z,7.47
2017-02-02T03:29:04.374Z,7.45
2017-02-02T03:29:30.516Z,7.31
2017-02-02T03:29:56.638Z,7.45
2017-02-02T03:30:22.772Z,7.38
2017-02-02T03:30:48.891Z,7.36
2017-02-02T03:31:15.061Z,7.29
2017-02-02T03:31:41.212Z,7.38
2017-02-02T03:32:07.365Z,7.4
2017-02-02T03:32:33.472Z,7.36
2017-02-02T03:32:59.587Z,7.48
2017-02-02T03:33:25.715Z,7.29
2017-02-02T03:33:51.883Z,7.39
2017-02-02T03:34:17.968Z,7.47
2017-02-02T03:34:44.095Z,7.35
2017-02-02T03:35:10.202Z,7.4
2017-02-02T03:35:36.325Z,7.43
2017-02-02T03:36:02.417Z,7.42
2017-02-02T03:36:28.529Z,7.31
2017-02-02T03:36:54.655Z,7.39
2017-02-02T03:37:20.812Z,7.5
2017-02-02T03:37:46.954Z,7.45
2017-02-02T03:38:13.085Z,7.47
2017-02-02T03:38:39.216Z,7.39
2017-02-02T03:39:05.364Z,7.38
2017-02-02T03:39:31.471Z,7.43
2017-02-02T03:39:57.699Z,7.48
2017-02-02T03:40:23.821Z,7.48
2017-02-02T03:40:49.939Z,7.53
2017-02-02T03:41:16.044Z,7.53
2017-02-02T03:41:42.174Z,7.56
2017-02-02T03:42:08.266Z,7.63
2017-02-02T03:42:34.426Z,7.56
2017-02-02T03:43:00.568Z,7.57
2017-02-02T03:43:26.758Z,7.66
2017-02-02T03:43:52.907Z,7.56
2017-02-02T03:44:19.055Z,7.5
2017-02-02T03:44:45.222Z,7.48
2017-02-02T03:45:11.357Z,7.5
2017-02-02T03:45:37.446Z,7.48
2017-02-02T03:46:03.632Z,7.53
2017-02-02T03:46:29.802Z,7.54
2017-02-02T03:46:55.939Z,7.53
2017-02-02T03:47:22.074Z,7.56
2017-02-02T03:47:48.262Z,7.6
2017-02-02T03:48:14.379Z,7.51
2017-02-02T03:48:40.492Z,7.67
2017-02-02T03:49:06.658Z,7.56
2017-02-02T03:49:32.814Z,7.6
2017-02-02T03:49:58.973Z,7.63
2017-02-02T03:50:25.061Z,7.58
2017-02-02T03:50:51.163Z,7.6
2017-02-02T03:51:17.334Z,7.63
2017-02-02T03:51:43.426Z,7.67
2017-02-02T03:52:09.626Z,7.61
2017-02-02T03:52:35.774Z,7.56
2017-02-02T03:53:01.907Z,7.56
2017-02-02T03:53:28.110Z,7.54
2017-02-02T03:53:54.261Z,7.53
2017-02-02T03:54:20.409Z,7.6
2017-02-02T03:54:46.557Z,7.66
2017-02-02T03:55:12.747Z,7.67
2017-02-02T03:55:38.941Z,7.72
2017-02-02T03:56:05.053Z,7.67
2017-02-02T03:56:31.204Z,7.61
2017-02-02T03:56:57.374Z,7.69
2017-02-02T03:57:23.489Z,7.63
2017-02-02T03:57:49.589Z,7.58
2017-02-02T03:58:15.724Z,7.67
2017-02-02T03:58:41.862Z,7.7
2017-02-02T03:59:08.001Z,7.7
2017-02-02T03:59:34.155Z,7.69
2017-02-02T04:00:00.310Z,7.72
2017-02-02T04:00:26.496Z,7.67
2017-02-02T04:00:52.671Z,7.7
2017-02-02T04:01:18.816Z,7.67
2017-02-02T04:01:44.952Z,7.73
2017-02-02T04:02:11.046Z,7.82
2017-02-02T04:02:37.218Z,7.72
2017-02-02T04:03:03.409Z,7.7
2017-02-02T04:03:29.576Z,7.69
2017-02-02T04:03:55.739Z,7.66
2017-02-02T04:04:21.878Z,7.73
2017-02-02T04:04:48.004Z,7.72
2017-02-02T04:05:14.129Z,7.67
2017-02-02T04:05:40.280Z,7.66
2017-02-02T04:06:06.403Z,7.72
2017-02-02T04:06:32.538Z,7.72
2017-02-02T04:06:58.682Z,7.6
2017-02-02T04:07:24.819Z,7.67
2017-02-02T04:07:51.023Z,7.58
2017-02-02T04:08:17.146Z,7.63
2017-02-02T04:08:43.323Z,7.66
2017-02-02T04:09:09.456Z,7.63
2017-02-02T04:09:35.582Z,7.58
2017-02-02T04:10:01.715Z,7.57
2017-02-02T04:10:27.871Z,7.53
2017-02-02T04:10:53.977Z,7.58
2017-02-02T04:11:20.140Z,7.54
2017-02-02T04:11:46.270Z,7.56
2017-02-02T04:12:12.456Z,7.67
2017-02-02T04:12:38.545Z,7.58
2017-02-02T04:13:04.710Z,7.56
2017-02-02T04:13:30.847Z,7.66
2017-02-02T04:13:56.991Z,7.6
2017-02-02T04:14:23.135Z,7.56
2017-02-02T04:14:49.356Z,7.58
2017-02-02T04:15:15.505Z,7.7
2017-02-02T04:15:41.622Z,7.63
2017-02-02T04:16:07.723Z,7.58
2017-02-02T04:16:33.846Z,7.56
2017-02-02T04:16:59.979Z,7.69
2017-02-02T04:17:26.093Z,7.54
2017-02-02T04:17:52.210Z,7.67
2017-02-02T04:18:18.353Z,7.6
2017-02-02T04:18:44.484Z,7.57
2017-02-02T04:19:10.596Z,7.57
2017-02-02T04:19:36.732Z,7.57
2017-02-02T04:20:02.884Z,7.57
2017-02-02T04:20:29.023Z,7.61
2017-02-02T04:20:55.178Z,7.57
2017-02-02T04:21:21.341Z,7.6
2017-02-02T04:21:47.491Z,7.57
2017-02-02T04:22:13.590Z,7.54
2017-02-02T04:22:39.706Z,7.54
2017-02-02T04:23:05.812Z,7.58
2017-02-02T04:23:32.002Z,7.45
2017-02-02T04:23:58.160Z,7.5
2017-02-02T04:24:24.318Z,7.56
2017-02-02T04:24:50.448Z,7.54
2017-02-02T04:25:16.588Z,7.58
2017-02-02T04:25:42.710Z,7.6
2017-02-02T04:26:08.873Z,7.69
2017-02-02T04:26:35.048Z,7.69
2017-02-02T04:27:01.200Z,7.73
2017-02-02T04:27:27.327Z,7.54
2017-02-02T04:27:53.453Z,7.63
2017-02-02T04:28:19.588Z,7.56
2017-02-02T04:28:45.756Z,7.72
2017-02-02T04:29:11.937Z,7.66
2017-02-02T04:29:38.111Z,7.63
2017-02-02T04:30:04.247Z,7.72
2017-02-02T04:30:30.351Z,7.7
2017-02-02T04:30:56.511Z,7.75
2017-02-02T04:31:22.628Z,7.63
2017-02-02T04:31:48.793Z,7.7
2017-02-02T04:32:14.958Z,7.7
2017-02-02T04:32:41.116Z,7.63
2017-02-02T04:33:07.244Z,7.58
2017-02-02T04:33:33.357Z,7.72
2017-02-02T04:33:59.510Z,7.67
2017-02-02T04:34:25.669Z,7.72
2017-02-02T04:34:51.762Z,7.63
2017-02-02T04:35:17.880Z,7.66
2017-02-02T04:35:44.015Z,7.7
2017-02-02T04:36:10.138Z,7.69
2017-02-02T04:36:36.234Z,7.67
2017-02-02T04:37:02.395Z,7.7
2017-02-02T04:37:28.532Z,7.67
2017-02-02T04:37:54.693Z,7.63
2017-02-02T04:38:20.850Z,7.69
2017-02-02T04:38:47.004Z,7.79
2017-02-02T04:39:13.175Z,7.72
2017-02-02T04:39:39.297Z,7.69
2017-02-02T04:40:05.416Z,7.82
2017-02-02T04:40:31.521Z,7.72
2017-02-02T04:40:57.658Z,7.7
2017-02-02T04:41:23.794Z,7.82
2017-02-02T04:41:49.900Z,7.79
2017-02-02T04:42:16.079Z,7.73
2017-02-02T04:42:42.219Z,7.7
2017-02-02T04:43:08.337Z,7.7
2017-02-02T04:43:34.482Z,7.76
2017-02-02T04:44:00.657Z,7.69
2017-02-02T04:44:26.784Z,7.72
2017-02-02T04:44:52.899Z,7.75
2017-02-02T04:45:19.083Z,7.91
2017-02-02T04:45:45.283Z,7.75
2017-02-02T04:46:11.423Z,7.82
2017-02-02T04:46:37.602Z,7.83
2017-02-02T04:47:03.758Z,7.83
2017-02-02T04:47:29.906Z,7.94
2017-02-02T04:47:56.078Z,7.93
2017-02-02T04:48:22.221Z,7.97
2017-02-02T04:48:48.363Z,7.95
2017-02-02T04:49:14.502Z,8
2017-02-02T04:49:40.639Z,7.94
2017-02-02T04:50:06.794Z,7.97
2017-02-02T04:50:32.905Z,8
2017-02-02T04:50:59.028Z,7.93
2017-02-02T04:51:25.245Z,7.94
2017-02-02T04:51:51.417Z,7.93
2017-02-02T04:52:17.563Z,7.94
2017-02-02T04:52:43.709Z,7.9
2017-02-02T04:53:09.842Z,7.83
2017-02-02T04:53:36.022Z,7.9
2017-02-02T04:54:02.110Z,7.83
2017-02-02T04:54:28.294Z,7.76
2017-02-02T04:54:54.455Z,7.85
2017-02-02T04:55:20.569Z,7.73
2017-02-02T04:55:46.718Z,7.8
2017-02-02T04:56:12.852Z,7.83
2017-02-02T04:56:38.938Z,7.79
2017-02-02T04:57:05.041Z,7.79
2017-02-02T04:57:31.209Z,7.82
2017-02-02T04:57:57.320Z,7.93
2017-02-02T04:58:23.500Z,7.97
2017-02-02T04:58:49.691Z,7.95
2017-02-02T04:59:15.834Z,7.97
2017-02-02T04:59:41.950Z,7.94
2017-02-02T05:00:08.097Z,7.94
2017-02-02T05:00:34.219Z,7.91
2017-02-02T05:01:00.370Z,8.03
2017-02-02T05:01:26.460Z,7.97
2017-02-02T05:01:52.556Z,7.98
2017-02-02T05:02:18.685Z,7.93
2017-02-02T05:02:44.797Z,7.88
2017-02-02T05:03:10.883Z,7.97
2017-02-02T05:03:37.049Z,7.95
2017-02-02T05:04:03.167Z,7.97
2017-02-02T05:04:29.263Z,7.91
2017-02-02T05:04:55.398Z,7.95
2017-02-02T05:05:21.584Z,7.98
2017-02-02T05:05:47.720Z,7.95
2017-02-02T05:06:13.903Z,7.98
2017-02-02T05:06:39.999Z,7.98
2017-02-02T05:07:06.191Z,8.12
2017-02-02T05:07:32.317Z,8.05
2017-02-02T05:07:58.463Z,8
2017-02-02T05:08:24.688Z,8.01
2017-02-02T05:08:50.873Z,8
2017-02-02T05:09:16.992Z,7.95
2017-02-02T05:09:43.148Z,7.98
2017-02-02T05:10:09.282Z,8.03
2017-02-02T05:10:35.425Z,7.95
2017-02-02T05:11:01.585Z,7.97
2017-02-02T05:11:27.756Z,7.91
2017-02-02T05:11:53.924Z,7.88
2017-02-02T05:12:20.051Z,7.8
2017-02-02T05:12:46.168Z,7.88
2017-02-02T05:13:12.357Z,7.87
2017-02-02T05:13:38.489Z,7.79
2017-02-02T05:14:04.594Z,7.69
2017-02-02T05:14:30.742Z,7.83
2017-02-02T05:14:56.905Z,7.8
2017-02-02T05:15:23.049Z,7.82
2017-02-02T05:15:49.201Z,7.8
2017-02-02T05:16:15.363Z,7.75
2017-02-02T05:16:41.562Z,7.67
2017-02-02T05:17:07.695Z,7.73
2017-02-02T05:17:33.860Z,7.69
2017-02-02T05:17:59.983Z,7.56
2017-02-02T05:18:26.096Z,7.69
2017-02-02T05:18:52.234Z,7.61
2017-02-02T05:19:18.359Z,7.6
2017-02-02T05:19:44.545Z,7.7
2017-02-02T05:20:10.716Z,7.72
2017-02-02T05:20:36.834Z,7.73
2017-02-02T05:21:03.006Z,7.67
2017-02-02T05:21:29.127Z,7.7
2017-02-02T05:21:55.265Z,7.67
2017-02-02T05:22:21.400Z,7.66
2017-02-02T05:22:47.503Z,7.73
2017-02-02T05:23:13.622Z,7.67
2017-02-02T05:23:39.764Z,7.69
2017-02-02T05:24:05.923Z,7.79
2017-02-02T05:24:32.041Z,7.72
2017-02-02T05:24:58.160Z,7.7
2017-02-02T05:25:24.336Z,7.72
2017-02-02T05:25:50.496Z,7.7
2017-02-02T05:26:16.656Z,7.69
2017-02-02T05:26:42.796Z,7.67
2017-02-02T05:27:08.951Z,7.69
2017-02-02T05:27:35.090Z,7.61
2017-02-02T05:28:01.202Z,7.72
2017-02-02T05:28:27.352Z,7.6
2017-02-02T05:28:53.464Z,7.56
2017-02-02T05:29:19.604Z,7.67
2017-02-02T05:29:45.793Z,7.58
2017-02-02T05:30:12.010Z,7.6
2017-02-02T05:30:38.160Z,7.56
2017-02-02T05:31:04.350Z,7.67
2017-02-02T05:31:30.470Z,7.58
2017-02-02T05:31:56.600Z,7.54
2017-02-02T05:32:22.735Z,7.58
2017-02-02T05:32:48.845Z,7.56
2017-02-02T05:33:14.969Z,7.56
2017-02-02T05:33:41.141Z,7.54
2017-02-02T05:34:07.262Z,7.47
2017-02-02T05:34:33.427Z,7.58
2017-02-02T05:34:59.558Z,7.54
2017-02-02T05:35:25.740Z,7.56
2017-02-02T05:35:51.899Z,7.5
2017-02-02T05:36:18.096Z,7.54
2017-02-02T05:36:44.219Z,7.56
2017-02-02T05:37:10.325Z,7.53
2017-02-02T05:37:36.473Z,7.51
2017-02-02T05:38:02.611Z,7.51
2017-02-02T05:38:28.811Z,7.48
2017-02-02T05:38:54.935Z,7.51
2017-02-02T05:39:21.108Z,7.43
2017-02-02T05:39:47.218Z,7.47
2017-02-02T05:40:13.376Z,7.51
2017-02-02T05:40:39.511Z,7.53
2017-02-02T05:41:05.665Z,7.54
2017-02-02T05:41:31.855Z,7.54
2017-02-02T05:41:57.947Z,7.58
2017-02-02T05:42:24.125Z,7.53
2017-02-02T05:42:50.316Z,7.57
2017-02-02T05:43:16.405Z,7.53
2017-02-02T05:43:42.532Z,7.57
2017-02-02T05:44:08.756Z,7.61
2017-02-02T05:44:34.930Z,7.56
2017-02-02T05:45:01.098Z,7.63
2017-02-02T05:45:27.200Z,7.61
2017-02-02T05:45:53.348Z,7.58
2017-02-02T05:46:19.460Z,7.67
2017-02-02T05:46:45.635Z,7.56
2017-02-02T05:47:11.763Z,7.51
2017-02-02T05:47:37.895Z,7.48
2017-02-02T05:48:04.016Z,7.48
2017-02-02T05:48:30.136Z,7.43
2017-02-02T05:48:56.291Z,7.38
2017-02-02T05:49:22.502Z,7.43
2017-02-02T05:49:48.598Z,7.45